createdAt,value
2018-09-17T00:00:34.461Z,101757.86
2018-09-17T00:03:03.043Z,101757.48
2018-09-17T00:05:31.641Z,101752.15
2018-09-17T00:08:00.205Z,101750.23
2018-09-17T00:10:28.886Z,101753.68
2018-09-17T00:12:57.429Z,101752.31
2018-09-17T00:15:26.033Z,101764.93
2018-09-17T00:17:54.590Z,101756.96
2018-09-17T00:20:23.185Z,101750.30
2018-09-17T00:22:51.761Z,101760.18
2018-09-17T00:25:20.342Z,101754.39
2018-09-17T00:27:48.916Z,101752.86
2018-09-17T00:30:17.535Z,101754.72
2018-09-17T00:32:46.125Z,101758.33
2018-09-17T00:35:14.716Z,101751.01
2018-09-17T00:37:43.310Z,101747.30
2018-09-17T00:40:11.924Z,101748.33
2018-09-17T00:42:40.487Z,101745.47
2018-09-17T00:45:09.092Z,101742.55
2018-09-17T00:47:37.662Z,101737.93
2018-09-17T00:50:06.309Z,101735.55
2018-09-17T00:52:34.880Z,101740.17
2018-09-17T00:55:03.461Z,101743.61
2018-09-17T00:57:32.038Z,101745.95
2018-09-17T01:00:00.633Z,101752.45
2018-09-17T01:02:29.212Z,101744.28
2018-09-17T01:04:57.801Z,101738.83
2018-09-17T01:07:26.370Z,101741.23
2018-09-17T01:09:54.949Z,101738.50
2018-09-17T01:12:23.526Z,101736.45
2018-09-17T01:14:52.117Z,101733.55
2018-09-17T01:17:20.688Z,101730.17
2018-09-17T01:19:49.274Z,101738.03
2018-09-17T01:22:17.867Z,101732.41
2018-09-17T01:24:46.471Z,101738.44
2018-09-17T01:27:15.042Z,101744.96
2018-09-17T01:29:43.664Z,101752.66
2018-09-17T01:32:12.245Z,101746.88
2018-09-17T01:34:40.852Z,101740.43
2018-09-17T01:37:09.433Z,101741.30
2018-09-17T01:39:38.026Z,101733.62
2018-09-17T01:42:06.655Z,101730.24
2018-09-17T01:44:35.286Z,101725.52
2018-09-17T01:47:03.869Z,101719.41
2018-09-17T01:49:32.454Z,101712.79
2018-09-17T01:52:01.018Z,101719.27
2018-09-17T01:54:29.580Z,101720.43
2018-09-17T01:56:58.157Z,101718.39
2018-09-17T01:59:26.781Z,101720.28
2018-09-17T02:01:55.392Z,101718.75
2018-09-17T02:04:23.987Z,101718.41
2018-09-17T02:06:52.590Z,101717.75
2018-09-17T02:09:21.158Z,101720.81
2018-09-17T02:11:49.760Z,101719.61
2018-09-17T02:14:18.337Z,101715.02
2018-09-17T02:16:46.945Z,101713.33
2018-09-17T02:19:15.625Z,101715.84
2018-09-17T02:21:44.229Z,101715.33
2018-09-17T02:24:12.842Z,101710.55
2018-09-17T02:26:41.456Z,101714.16
2018-09-17T02:29:10.013Z,101717.03
2018-09-17T02:31:38.610Z,101721.26
2018-09-17T02:34:07.168Z,101731.30
2018-09-17T02:36:35.751Z,101730.11
2018-09-17T02:39:05.416Z,101725.48
2018-09-17T02:41:33.999Z,101729.03
2018-09-17T02:44:02.556Z,101741.26
2018-09-17T02:46:31.154Z,101748.02
2018-09-17T02:48:59.709Z,101758.31
2018-09-17T02:51:28.290Z,101757.79
2018-09-17T02:53:56.910Z,101753.24
2018-09-17T02:56:25.531Z,101737.08
2018-09-17T02:58:54.107Z,101731.08
2018-09-17T03:01:22.704Z,101724.23
2018-09-17T03:03:51.772Z,101726.80
2018-09-17T03:06:20.350Z,101717.82
2018-09-17T03:08:48.909Z,101718.22
2018-09-17T03:11:17.502Z,101721.80
2018-09-17T03:13:46.145Z,101715.85
2018-09-17T03:16:14.727Z,101718.61
2018-09-17T03:18:53.305Z,101721.86
2018-09-17T03:21:22.133Z,101716.91
2018-09-17T03:23:50.732Z,101720.66
2018-09-17T03:26:19.895Z,101723.57
2018-09-17T03:28:48.507Z,101730.55
2018-09-17T03:31:17.184Z,101729.98
2018-09-17T03:33:45.764Z,101727.74
2018-09-17T03:36:14.391Z,101731.13
2018-09-17T03:38:46.035Z,101742.44
2018-09-17T03:41:15.250Z,101741.80
2018-09-17T03:43:45.376Z,101734.43
2018-09-17T03:46:14.038Z,101734.94
2018-09-17T03:48:42.783Z,101736.64
2018-09-17T03:51:12.019Z,101730.18
2018-09-17T03:53:41.010Z,101720.47
2018-09-17T03:56:09.617Z,101719.25
2018-09-17T03:58:38.182Z,101721.36
2018-09-17T04:01:06.916Z,101743.27
2018-09-17T04:03:35.491Z,101742.48
2018-09-17T04:06:04.053Z,101751.63
2018-09-17T04:08:33.470Z,101745.69
2018-09-17T04:11:02.030Z,101748.57
2018-09-17T04:13:30.618Z,101748.09
2018-09-17T04:15:59.189Z,101757.42
2018-09-17T04:18:27.785Z,101757.06
2018-09-17T04:20:56.366Z,101765.20
2018-09-17T04:23:30.005Z,101758.59
2018-09-17T04:25:58.574Z,101763.14
2018-09-17T04:28:27.172Z,101757.31
2018-09-17T04:30:55.746Z,101756.41
2018-09-17T04:33:24.658Z,101762.80
2018-09-17T04:35:53.222Z,101755.84
2018-09-17T04:38:21.808Z,101751.09
2018-09-17T04:40:50.393Z,101758.41
2018-09-17T04:43:18.966Z,101759.97
2018-09-17T04:45:47.548Z,101761.84
2018-09-17T04:48:16.432Z,101755.84
2018-09-17T04:50:44.984Z,101757.67
2018-09-17T04:53:13.553Z,101768.87
2018-09-17T04:55:42.093Z,101770.54
2018-09-17T04:58:10.666Z,101777.56
2018-09-17T05:00:39.222Z,101779.39
2018-09-17T05:03:07.802Z,101780.58
2018-09-17T05:05:36.359Z,101786.25
2018-09-17T05:08:04.943Z,101788.02
2018-09-17T05:10:33.493Z,101791.38
2018-09-17T05:13:02.128Z,101795.17
2018-09-17T05:15:30.669Z,101791.47
2018-09-17T05:17:59.268Z,101785.52
2018-09-17T05:20:27.845Z,101782.13
2018-09-17T05:22:56.442Z,101776.86
2018-09-17T05:25:25.040Z,101787.05
2018-09-17T05:27:53.629Z,101780.62
2018-09-17T05:30:22.225Z,101779.17
2018-09-17T05:32:50.901Z,101775.17
2018-09-17T05:35:19.596Z,101771.83
2018-09-17T05:37:48.306Z,101772.25
2018-09-17T05:40:16.875Z,101775.16
2018-09-17T05:42:45.452Z,101776.92
2018-09-17T05:45:14.015Z,101782.26
2018-09-17T05:47:42.613Z,101781.45
2018-09-17T05:50:11.194Z,101783.20
2018-09-17T05:52:39.785Z,101777.33
2018-09-17T05:55:08.364Z,101774.70
2018-09-17T05:57:37.003Z,101772.74
2018-09-17T06:00:07.032Z,101778.00
2018-09-17T06:02:35.663Z,101771.31
2018-09-17T06:05:04.403Z,101774.75
2018-09-17T06:07:32.962Z,101773.20
2018-09-17T06:10:01.610Z,101776.59
2018-09-17T06:12:30.179Z,101773.82
2018-09-17T06:14:58.766Z,101778.91
2018-09-17T06:17:27.421Z,101774.11
2018-09-17T06:19:55.972Z,101774.21
2018-09-17T06:22:24.625Z,101770.13
2018-09-17T06:24:53.213Z,101771.95
2018-09-17T06:27:21.868Z,101776.67
2018-09-17T06:29:50.491Z,101775.77
2018-09-17T06:32:19.075Z,101783.31
2018-09-17T06:34:47.702Z,101792.20
2018-09-17T06:37:16.286Z,101799.08
2018-09-17T06:39:44.882Z,101796.70
2018-09-17T06:42:13.510Z,101795.84
2018-09-17T06:44:42.630Z,101804.22
2018-09-17T06:47:11.202Z,101796.11
2018-09-17T06:49:39.809Z,101796.69
2018-09-17T06:52:08.420Z,101794.48
2018-09-17T06:54:37.013Z,101793.53
2018-09-17T06:57:05.589Z,101791.90
2018-09-17T06:59:34.284Z,101792.19
2018-09-17T07:02:03.142Z,101783.53
2018-09-17T07:04:31.723Z,101779.77
2018-09-17T07:07:00.312Z,101779.84
2018-09-17T07:09:28.901Z,101774.20
2018-09-17T07:11:57.481Z,101776.70
2018-09-17T07:14:26.082Z,101768.97
2018-09-17T07:16:54.667Z,101776.69
2018-09-17T07:19:23.257Z,101774.05
2018-09-17T07:21:51.822Z,101780.02
2018-09-17T07:24:20.582Z,101778.84
2018-09-17T07:26:49.142Z,101775.48
2018-09-17T07:29:17.717Z,101776.15
2018-09-17T07:31:46.286Z,101776.41
2018-09-17T07:34:14.856Z,101778.34
2018-09-17T07:36:43.434Z,101779.94
2018-09-17T07:39:12.602Z,101780.16
2018-09-17T07:41:41.165Z,101781.31
2018-09-17T07:44:09.749Z,101778.56
2018-09-17T07:46:38.318Z,101775.58
2018-09-17T07:49:06.907Z,101776.88
2018-09-17T07:51:35.472Z,101775.81
2018-09-17T07:54:04.058Z,101778.52
2018-09-17T07:56:32.624Z,101775.95
2018-09-17T07:59:01.262Z,101774.67
2018-09-17T08:01:29.825Z,101775.91
2018-09-17T08:03:58.396Z,101771.67
2018-09-17T08:06:26.948Z,101773.22
2018-09-17T08:08:55.547Z,101773.64
2018-09-17T08:11:24.098Z,101771.72
2018-09-17T08:13:52.671Z,101770.67
2018-09-17T08:16:21.308Z,101773.88
2018-09-17T08:18:49.861Z,101771.66
2018-09-17T08:21:18.449Z,101765.45
2018-09-17T08:23:47.053Z,101767.22
2018-09-17T08:26:15.637Z,101773.67
2018-09-17T08:28:44.210Z,101770.38
2018-09-17T08:31:12.884Z,101767.84
2018-09-17T08:33:41.418Z,101758.34
2018-09-17T08:36:10.000Z,101761.26
2018-09-17T08:38:38.597Z,101765.34
2018-09-17T08:41:07.481Z,101759.91
2018-09-17T08:43:36.106Z,101761.73
2018-09-17T08:46:04.735Z,101762.14
2018-09-17T08:48:33.304Z,101765.33
2018-09-17T08:51:01.881Z,101760.47
2018-09-17T08:53:30.449Z,101766.41
2018-09-17T08:57:04.275Z,101770.77
2018-09-17T08:59:38.186Z,101771.02
2018-09-17T09:02:12.198Z,101773.38
2018-09-17T09:04:46.007Z,101767.51
2018-09-17T09:07:19.937Z,101768.33
2018-09-17T09:09:48.532Z,101763.10
2018-09-17T09:12:21.990Z,101760.16
2018-09-17T09:14:54.701Z,101764.46
2018-09-17T09:17:23.254Z,101761.57
2018-09-17T09:19:51.823Z,101752.22
2018-09-17T09:22:20.408Z,101754.03
2018-09-17T09:24:48.976Z,101749.27
2018-09-17T09:27:17.565Z,101742.02
2018-09-17T09:29:46.156Z,101744.75
2018-09-17T09:32:14.741Z,101749.24
2018-09-17T09:34:43.294Z,101744.98
2018-09-17T09:37:11.901Z,101737.14
2018-09-17T09:39:40.470Z,101737.84
2018-09-17T09:42:09.052Z,101732.97
2018-09-17T09:44:37.615Z,101727.16
2018-09-17T09:47:06.247Z,101722.73
2018-09-17T09:49:34.797Z,101725.36
2018-09-17T09:52:03.377Z,101731.34
2018-09-17T09:54:31.931Z,101722.00
2018-09-17T09:57:00.496Z,101719.87
2018-09-17T09:59:29.068Z,101720.77
2018-09-17T10:02:03.032Z,101718.69
2018-09-17T10:04:31.581Z,101721.94
2018-09-17T10:07:00.153Z,101724.17
2018-09-17T10:09:33.918Z,101722.39
2018-09-17T10:12:07.754Z,101718.15
2018-09-17T10:14:41.557Z,101718.19
2018-09-17T10:17:15.514Z,101717.86
2018-09-17T10:19:49.604Z,101712.29
2018-09-17T10:22:18.841Z,101714.90
2018-09-17T10:24:47.393Z,101706.55
2018-09-17T10:27:16.772Z,101707.67
2018-09-17T10:29:45.426Z,101709.67
2018-09-17T10:32:14.135Z,101705.33
2018-09-17T10:34:43.066Z,101700.67
2018-09-17T10:37:11.980Z,101699.60
2018-09-17T10:39:40.629Z,101697.43
2018-09-17T10:42:09.233Z,101687.39
2018-09-17T10:44:37.788Z,101692.41
2018-09-17T10:47:06.413Z,101692.41
2018-09-17T10:49:34.993Z,101693.27
2018-09-17T10:52:03.594Z,101687.67
2018-09-17T10:54:32.241Z,101684.87
2018-09-17T10:57:00.908Z,101679.02
2018-09-17T10:59:29.500Z,101682.08
2018-09-17T11:01:58.085Z,101685.44
2018-09-17T11:04:26.674Z,101679.05
2018-09-17T11:06:55.245Z,101673.80
2018-09-17T11:09:23.831Z,101673.23
2018-09-17T11:11:52.396Z,101682.20
2018-09-17T11:14:21.027Z,101676.89
2018-09-17T11:16:49.604Z,101670.17
2018-09-17T11:19:18.190Z,101667.39
2018-09-17T11:21:46.788Z,101665.98
2018-09-17T11:24:15.374Z,101666.27
2018-09-17T11:26:43.942Z,101664.01
2018-09-17T11:29:12.524Z,101651.95
2018-09-17T11:31:41.097Z,101651.39
2018-09-17T11:34:09.672Z,101652.52
2018-09-17T11:36:38.241Z,101658.11
2018-09-17T11:39:08.578Z,101652.52
2018-09-17T11:41:37.140Z,101656.72
2018-09-17T11:44:05.729Z,101652.55
2018-09-17T11:46:34.277Z,101650.31
2018-09-17T11:49:02.855Z,101651.43
2018-09-17T11:51:31.430Z,101649.48
2018-09-17T11:54:00.064Z,101653.67
2018-09-17T11:56:28.792Z,101648.05
2018-09-17T11:58:57.361Z,101641.91
2018-09-17T12:01:31.116Z,101640.76
2018-09-17T12:04:04.947Z,101640.73
2018-09-17T12:06:38.895Z,101635.95
2018-09-17T12:09:09.562Z,101641.57
2018-09-17T12:11:38.122Z,101630.14
2018-09-17T12:14:06.776Z,101630.41
2018-09-17T12:16:35.332Z,101626.77
2018-09-17T12:19:03.963Z,101625.91
2018-09-17T12:21:32.529Z,101625.02
2018-09-17T12:24:01.483Z,101624.69
2018-09-17T12:26:30.037Z,101620.48
2018-09-17T12:28:58.617Z,101613.18
2018-09-17T12:31:27.232Z,101617.12
2018-09-17T12:33:55.906Z,101621.39
2018-09-17T12:36:24.457Z,101613.59
2018-09-17T12:38:53.048Z,101604.37
2018-09-17T12:41:21.629Z,101603.53
2018-09-17T12:43:50.218Z,101607.20
2018-09-17T12:46:18.787Z,101607.77
2018-09-17T12:48:47.374Z,101599.94
2018-09-17T12:51:15.958Z,101606.30
2018-09-17T12:53:44.547Z,101593.06
2018-09-17T12:56:14.036Z,101597.48
2018-09-17T12:58:42.638Z,101598.30
2018-09-17T13:01:11.201Z,101601.32
2018-09-17T13:03:39.775Z,101595.14
2018-09-17T13:06:08.363Z,101593.50
2018-09-17T13:08:36.966Z,101591.83
2018-09-17T13:11:05.570Z,101594.86
2018-09-17T13:13:34.195Z,101591.14
2018-09-17T13:16:02.788Z,101591.91
2018-09-17T13:18:31.351Z,101592.13
2018-09-17T13:20:59.935Z,101587.11
2018-09-17T13:23:28.537Z,101586.75
2018-09-17T13:25:57.129Z,101586.67
2018-09-17T13:28:25.699Z,101586.41
2018-09-17T13:30:54.305Z,101588.53
2018-09-17T13:33:22.881Z,101588.89
2018-09-17T13:35:51.446Z,101583.65
2018-09-17T13:38:20.001Z,101586.54
2018-09-17T13:40:48.577Z,101584.09
2018-09-17T13:43:17.138Z,101582.70
2018-09-17T13:45:45.737Z,101580.69
2018-09-17T13:48:14.307Z,101581.73
2018-09-17T13:50:42.904Z,101576.65
2018-09-17T13:53:11.543Z,101576.13
2018-09-17T13:55:40.116Z,101573.82
2018-09-17T13:58:08.668Z,101573.50
2018-09-17T14:00:37.271Z,101568.41
2018-09-17T14:03:05.857Z,101558.92
2018-09-17T14:05:34.443Z,101570.20
2018-09-17T14:08:03.001Z,101568.27
2018-09-17T14:10:31.581Z,101565.23
2018-09-17T14:13:00.134Z,101569.23
2018-09-17T14:15:28.725Z,101560.00
2018-09-17T14:17:57.298Z,101561.09
2018-09-17T14:20:25.911Z,101556.31
2018-09-17T14:22:54.489Z,101558.55
2018-09-17T14:25:23.073Z,101562.53
2018-09-17T14:27:51.655Z,101562.05
2018-09-17T14:30:20.306Z,101559.30
2018-09-17T14:32:54.221Z,101563.27
2018-09-17T14:35:22.817Z,101550.42
2018-09-17T14:37:51.409Z,101555.45
2018-09-17T14:40:19.974Z,101559.94
2018-09-17T14:42:48.541Z,101560.20
2018-09-17T14:45:17.119Z,101554.58
2018-09-17T14:47:45.683Z,101557.38
2018-09-17T14:50:14.286Z,101552.91
2018-09-17T14:52:42.849Z,101548.08
2018-09-17T14:55:11.442Z,101548.08
2018-09-17T14:57:40.001Z,101549.77
2018-09-17T15:00:08.606Z,101545.88
2018-09-17T15:02:37.156Z,101546.48
2018-09-17T15:05:05.783Z,101537.83
2018-09-17T15:07:34.325Z,101539.23
2018-09-17T15:10:02.915Z,101542.55
2018-09-17T15:12:31.556Z,101542.33
2018-09-17T15:15:00.147Z,101540.06
2018-09-17T15:17:28.710Z,101542.33
2018-09-17T15:19:57.293Z,101540.39
2018-09-17T15:22:25.921Z,101530.61
2018-09-17T15:24:54.481Z,101528.95
2018-09-17T15:27:23.068Z,101525.02
2018-09-17T15:29:51.680Z,101527.84
2018-09-17T15:32:20.306Z,101526.73
2018-09-17T15:34:48.894Z,101522.01
2018-09-17T15:37:17.461Z,101524.29
2018-09-17T15:39:46.057Z,101526.81
2018-09-17T15:42:14.678Z,101523.17
2018-09-17T15:44:43.248Z,101522.91
2018-09-17T15:47:11.846Z,101526.81
2018-09-17T15:49:40.554Z,101518.42
2018-09-17T15:52:09.185Z,101523.75
2018-09-17T15:54:37.779Z,101523.77
2018-09-17T15:57:06.374Z,101523.47
2018-09-17T15:59:34.944Z,101519.58
2018-09-17T16:02:03.538Z,101515.94
2018-09-17T16:04:32.097Z,101520.95
2018-09-17T16:07:00.676Z,101512.02
2018-09-17T16:09:29.246Z,101514.53
2018-09-17T16:11:57.813Z,101508.12
2018-09-17T16:14:26.376Z,101510.08
2018-09-17T16:16:54.964Z,101505.84
2018-09-17T16:19:23.538Z,101505.55
2018-09-17T16:21:52.193Z,101510.24
2018-09-17T16:24:21.050Z,101499.33
2018-09-17T16:26:49.615Z,101496.50
2018-09-17T16:29:18.197Z,101490.89
2018-09-17T16:31:46.797Z,101493.41
2018-09-17T16:34:15.384Z,101494.76
2018-09-17T16:36:43.945Z,101494.44
2018-09-17T16:39:12.528Z,101497.19
2018-09-17T16:41:41.184Z,101506.39
2018-09-17T16:44:09.730Z,101504.95
2018-09-17T16:46:38.356Z,101508.55
2018-09-17T16:49:06.969Z,101510.96
2018-09-17T16:51:35.536Z,101509.48
2018-09-17T16:54:04.117Z,101509.66
2018-09-17T16:56:32.684Z,101513.63
2018-09-17T16:59:01.283Z,101512.85
2018-09-17T17:01:29.864Z,101517.61
2018-09-17T17:03:58.441Z,101521.73
2018-09-17T17:06:27.003Z,101516.11
2018-09-17T17:08:55.638Z,101522.20
2018-09-17T17:11:24.290Z,101530.19
2018-09-17T17:13:52.847Z,101525.09
2018-09-17T17:16:21.463Z,101529.50
2018-09-17T17:18:50.156Z,101523.45
2018-09-17T17:21:18.652Z,101533.06
2018-09-17T17:23:47.235Z,101527.67
2018-09-17T17:26:15.881Z,101534.33
2018-09-17T17:28:44.521Z,101539.63
2018-09-17T17:31:13.104Z,101542.66
2018-09-17T17:33:42.465Z,101540.73
2018-09-17T17:36:12.056Z,101542.30
2018-09-17T17:38:41.347Z,101548.30
2018-09-17T17:41:11.316Z,101548.42
2018-09-17T17:43:40.460Z,101547.31
2018-09-17T17:46:10.185Z,101546.59
2018-09-17T17:48:39.273Z,101551.02
2018-09-17T17:51:08.508Z,101552.48
